createdAt,value
2022-09-02T00:01:29.528Z,71.63
2022-09-02T00:03:31.306Z,71.73
2022-09-02T00:05:32.822Z,71.88
2022-09-02T00:07:34.139Z,71.70
2022-09-02T00:09:37.589Z,72.01
2022-09-02T00:11:39.008Z,72.14
2022-09-02T00:13:40.684Z,72.39
2022-09-02T00:15:42.000Z,72.31
2022-09-02T00:17:43.309Z,72.35
2022-09-02T00:19:44.670Z,72.63
2022-09-02T00:21:45.991Z,73.08
2022-09-02T00:23:47.321Z,72.73
2022-09-02T00:25:48.653Z,72.94
2022-09-02T00:27:49.971Z,72.94
2022-09-02T00:29:51.304Z,73.16
2022-09-02T00:31:52.699Z,73.04
2022-09-02T00:33:54.520Z,72.73
2022-09-02T00:35:55.880Z,72.34
2022-09-02T00:37:57.273Z,72.55
2022-09-02T00:39:58.658Z,72.28
2022-09-02T00:42:01.450Z,72.97
2022-09-02T00:44:03.513Z,72.63
2022-09-02T00:46:04.898Z,72.57
2022-09-02T00:48:06.258Z,72.79
2022-09-02T00:50:07.617Z,73.03
2022-09-02T00:52:08.996Z,73.16
2022-09-02T00:54:11.908Z,73.11
2022-09-02T00:56:13.263Z,73.02
2022-09-02T00:58:14.606Z,73.53
2022-09-02T01:00:18.727Z,73.30
2022-09-02T01:02:24.110Z,73.00
2022-09-02T01:04:26.160Z,73.35
2022-09-02T01:06:27.553Z,73.55
2022-09-02T01:08:30.003Z,74.01
2022-09-02T01:10:34.429Z,73.73
2022-09-02T01:12:36.006Z,73.76
2022-09-02T01:14:37.324Z,73.76
2022-09-02T01:16:38.698Z,73.80
2022-09-02T01:18:44.348Z,74.22
2022-09-02T01:20:45.667Z,73.94
2022-09-02T01:22:46.984Z,74.09
2022-09-02T01:24:48.524Z,74.09
2022-09-02T01:26:49.871Z,73.97
2022-09-02T01:28:51.247Z,74.40
2022-09-02T01:30:52.613Z,74.02
2022-09-02T01:32:53.971Z,74.99
2022-09-02T01:34:55.281Z,75.60
2022-09-02T01:36:56.607Z,74.95
2022-09-02T01:38:57.942Z,74.67
2022-09-02T01:40:59.327Z,74.77
2022-09-02T01:43:00.731Z,74.53
2022-09-02T01:45:02.064Z,74.91
2022-09-02T01:47:03.442Z,75.56
2022-09-02T01:49:04.843Z,75.02
2022-09-02T01:51:06.296Z,75.20
2022-09-02T01:53:08.020Z,74.99
2022-09-02T01:55:09.347Z,75.05
2022-09-02T01:57:10.709Z,75.13
2022-09-02T01:59:17.700Z,74.95
2022-09-02T02:01:19.094Z,75.22
2022-09-02T02:03:20.535Z,74.91
2022-09-02T02:05:22.460Z,74.92
2022-09-02T02:07:24.848Z,74.86
2022-09-02T02:09:26.168Z,75.47
2022-09-02T02:11:27.535Z,75.02
2022-09-02T02:13:28.907Z,75.06
2022-09-02T02:17:30.393Z,75.42
2022-09-02T02:19:31.743Z,74.97
2022-09-02T02:21:33.804Z,75.58
2022-09-02T02:23:35.112Z,75.22
2022-09-02T02:25:36.899Z,74.99
2022-09-02T02:27:38.226Z,74.65
2022-09-02T02:29:39.538Z,74.75
2022-09-02T02:31:40.928Z,75.08
2022-09-02T02:33:42.359Z,75.05
2022-09-02T02:35:43.731Z,75.19
2022-09-02T02:37:46.030Z,74.63
2022-09-02T02:39:47.407Z,74.62
2022-09-02T02:41:48.743Z,75.03
2022-09-02T02:43:50.141Z,75.23
2022-09-02T02:45:51.994Z,75.47
2022-09-02T02:47:54.544Z,75.35
2022-09-02T02:49:55.928Z,75.13
2022-09-02T02:51:57.240Z,75.12
2022-09-02T02:53:59.106Z,75.25
2022-09-02T02:56:00.522Z,75.31
2022-09-02T02:58:01.889Z,75.29
2022-09-02T03:00:03.402Z,75.37
2022-09-02T03:02:04.822Z,75.73
2022-09-02T03:04:06.307Z,75.54
2022-09-02T03:06:07.631Z,75.33
2022-09-02T03:08:08.955Z,75.16
2022-09-02T03:10:10.407Z,75.24
2022-09-02T03:12:11.724Z,75.30
2022-09-02T03:14:13.026Z,75.43
2022-09-02T03:16:14.406Z,75.75
2022-09-02T03:18:15.734Z,75.43
2022-09-02T03:20:17.068Z,75.31
2022-09-02T03:22:18.445Z,75.71
2022-09-02T03:24:19.915Z,75.50
2022-09-02T03:26:21.238Z,75.38
2022-09-02T03:28:22.652Z,75.61
2022-09-02T03:30:25.202Z,75.78
2022-09-02T03:32:30.642Z,75.80
2022-09-02T03:34:32.091Z,75.54
2022-09-02T03:36:33.802Z,75.94
2022-09-02T03:38:35.112Z,75.72
2022-09-02T03:40:36.481Z,75.68
2022-09-02T03:42:38.492Z,75.57
2022-09-02T03:44:41.714Z,75.65
2022-09-02T03:46:43.020Z,75.64
2022-09-02T03:48:44.695Z,75.63
2022-09-02T03:50:47.330Z,75.31
2022-09-02T03:52:48.673Z,75.53
2022-09-02T03:54:50.235Z,75.53
2022-09-02T03:56:51.570Z,75.48
2022-09-02T03:58:53.559Z,75.94
2022-09-02T04:00:54.864Z,75.51
2022-09-02T04:02:56.243Z,75.52
2022-09-02T04:04:57.627Z,75.79
2022-09-02T04:06:58.943Z,75.42
2022-09-02T04:09:00.280Z,75.66
2022-09-02T04:11:01.624Z,76.03
2022-09-02T04:13:02.939Z,75.40
2022-09-02T04:15:04.252Z,75.71
2022-09-02T04:17:05.598Z,75.67
2022-09-02T04:19:06.977Z,75.89
2022-09-02T04:21:08.283Z,75.42
2022-09-02T04:23:09.623Z,75.72
2022-09-02T04:25:11.011Z,75.62
2022-09-02T04:27:12.328Z,76.05
2022-09-02T04:29:13.750Z,75.89
2022-09-02T04:31:15.105Z,75.78
2022-09-02T04:33:16.450Z,75.92
2022-09-02T04:35:17.772Z,76.32
2022-09-02T04:37:19.098Z,76.30
2022-09-02T04:39:20.908Z,76.15
2022-09-02T04:41:22.960Z,76.15
2022-09-02T04:43:25.127Z,76.01
2022-09-02T04:45:29.780Z,76.25
2022-09-02T04:47:31.337Z,76.38
2022-09-02T04:49:33.485Z,76.45
2022-09-02T04:51:34.895Z,76.78
2022-09-02T04:53:36.316Z,76.26
2022-09-02T04:55:37.700Z,75.99
2022-09-02T04:57:39.452Z,75.82
2022-09-02T04:59:40.854Z,75.80
2022-09-02T05:01:42.900Z,76.06
2022-09-02T05:03:44.758Z,76.03
2022-09-02T05:05:46.579Z,76.04
2022-09-02T05:07:47.916Z,76.01
2022-09-02T05:09:50.573Z,76.29
2022-09-02T05:11:52.271Z,76.24
2022-09-02T05:13:53.634Z,76.19
2022-09-02T05:15:54.991Z,75.84
2022-09-02T05:17:56.407Z,76.07
2022-09-02T05:19:57.724Z,76.53
2022-09-02T05:21:59.347Z,76.14
2022-09-02T05:24:00.973Z,76.28
2022-09-02T05:26:03.323Z,76.33
2022-09-02T05:28:04.639Z,75.29
2022-09-02T05:30:05.996Z,76.03
2022-09-02T05:32:08.256Z,75.23
2022-09-02T05:34:09.688Z,75.54
2022-09-02T05:36:12.552Z,75.37
2022-09-02T05:38:14.779Z,75.47
2022-09-02T05:40:16.211Z,75.58
2022-09-02T05:42:24.844Z,75.41
2022-09-02T05:44:26.238Z,75.33
2022-09-02T05:46:27.634Z,75.32
2022-09-02T05:48:47.887Z,75.60
2022-09-02T05:50:50.260Z,75.70
2022-09-02T05:52:58.840Z,75.24
2022-09-02T05:55:00.711Z,75.45
2022-09-02T05:57:02.071Z,75.46
2022-09-02T05:59:03.492Z,75.06
2022-09-02T06:01:04.939Z,75.53
2022-09-02T06:03:06.323Z,75.23
2022-09-02T06:05:12.150Z,75.09
2022-09-02T06:07:13.876Z,74.99
2022-09-02T06:09:15.306Z,75.16
2022-09-02T06:11:17.981Z,74.88
2022-09-02T06:13:22.669Z,74.99
2022-09-02T06:15:27.657Z,75.15
2022-09-02T06:17:29.047Z,75.18
2022-09-02T06:19:30.559Z,74.84
2022-09-02T06:21:31.866Z,75.01
2022-09-02T06:23:33.229Z,74.94
2022-09-02T06:25:34.554Z,74.96
2022-09-02T06:27:36.755Z,74.92
2022-09-02T06:29:38.070Z,74.70
2022-09-02T06:31:39.374Z,74.86
2022-09-02T06:33:40.692Z,74.68
2022-09-02T06:35:42.104Z,74.72
2022-09-02T06:37:43.539Z,75.00
2022-09-02T06:39:46.727Z,74.81
2022-09-02T06:41:49.032Z,74.83
2022-09-02T06:43:50.626Z,74.51
2022-09-02T06:45:52.011Z,74.76
2022-09-02T06:47:53.451Z,74.76
2022-09-02T06:49:54.778Z,74.84
2022-09-02T06:51:56.886Z,74.58
2022-09-02T06:53:58.254Z,74.44
2022-09-02T06:55:59.641Z,74.78
2022-09-02T06:58:00.965Z,74.70
2022-09-02T07:00:03.587Z,74.55
2022-09-02T07:02:05.127Z,74.79
2022-09-02T07:04:25.331Z,74.63
2022-09-02T07:06:27.590Z,74.46
2022-09-02T07:08:28.935Z,74.70
2022-09-02T07:10:30.327Z,74.23
2022-09-02T07:12:31.862Z,73.54
2022-09-02T07:14:33.280Z,71.43
2022-09-02T07:16:34.725Z,64.67
2022-09-02T07:18:36.630Z,62.94
2022-09-02T07:20:38.183Z,62.14
2022-09-02T07:22:39.582Z,61.72
2022-09-02T07:24:40.927Z,61.64
2022-09-02T07:26:42.284Z,61.88
2022-09-02T07:28:43.707Z,62.79
2022-09-02T07:30:45.072Z,63.50
2022-09-02T07:32:46.440Z,63.64
2022-09-02T07:34:47.803Z,64.60
2022-09-02T07:36:49.223Z,64.77
2022-09-02T07:38:50.605Z,65.29
2022-09-02T07:40:57.306Z,66.00
2022-09-02T07:42:58.722Z,66.45
2022-09-02T07:45:00.079Z,65.91
2022-09-02T07:47:01.557Z,66.81
2022-09-02T07:49:04.187Z,67.17
2022-09-02T07:51:06.071Z,67.89
2022-09-02T07:53:07.522Z,67.97
2022-09-02T07:55:13.981Z,68.49
2022-09-02T07:57:16.207Z,68.47
2022-09-02T07:59:18.046Z,69.00
2022-09-02T08:01:23.575Z,69.39
2022-09-02T08:03:25.159Z,69.34
2022-09-02T08:05:26.490Z,69.45
2022-09-02T08:07:27.828Z,69.21
2022-09-02T08:09:29.211Z,69.58
2022-09-02T08:11:32.717Z,70.32
2022-09-02T08:13:34.123Z,69.87
2022-09-02T08:15:35.974Z,70.08
2022-09-02T08:17:37.387Z,70.60
2022-09-02T08:19:38.704Z,70.08
2022-09-02T08:21:40.045Z,70.16
2022-09-02T08:23:41.616Z,70.41
2022-09-02T08:25:43.233Z,70.43
2022-09-02T08:27:44.615Z,70.29
2022-09-02T08:29:45.991Z,70.12
2022-09-02T08:31:48.651Z,69.41
2022-09-02T08:33:52.099Z,70.14
2022-09-02T08:35:53.464Z,69.92
2022-09-02T08:37:54.843Z,69.93
2022-09-02T08:39:56.203Z,69.90
2022-09-02T08:41:57.692Z,69.88
2022-09-02T08:43:59.067Z,69.72
2022-09-02T08:46:00.475Z,69.86
2022-09-02T08:48:01.832Z,69.77
2022-09-02T08:50:03.158Z,69.72
2022-09-02T08:52:04.502Z,69.75
2022-09-02T08:54:05.889Z,69.76
2022-09-02T08:56:07.216Z,70.01
2022-09-02T08:58:08.549Z,70.04
2022-09-02T09:00:09.939Z,69.90
2022-09-02T09:02:11.308Z,69.63
2022-09-02T09:04:18.558Z,69.72
2022-09-02T09:06:19.874Z,69.74
2022-09-02T09:08:21.886Z,69.92
2022-09-02T09:10:23.407Z,69.87
2022-09-02T09:12:24.782Z,69.56
2022-09-02T09:14:26.121Z,69.86
2022-09-02T09:16:27.808Z,69.88
2022-09-02T09:18:34.912Z,69.57
2022-09-02T09:20:36.427Z,69.82
2022-09-02T09:22:37.752Z,69.93
2022-09-02T09:24:39.111Z,69.50
2022-09-02T09:26:40.965Z,69.64
2022-09-02T09:28:43.525Z,69.47
2022-09-02T09:30:44.843Z,69.55
2022-09-02T09:32:46.499Z,69.93
2022-09-02T09:34:49.209Z,69.53
2022-09-02T09:36:51.441Z,69.62
2022-09-02T09:38:52.783Z,69.69
2022-09-02T09:40:54.221Z,69.54
2022-09-02T09:42:56.889Z,69.63
2022-09-02T09:44:58.491Z,69.73
2022-09-02T09:46:59.838Z,69.95
2022-09-02T09:49:01.173Z,69.63
2022-09-02T09:51:02.505Z,69.47
2022-09-02T09:53:03.894Z,69.46
2022-09-02T09:55:05.212Z,69.76
2022-09-02T09:57:06.520Z,69.59
2022-09-02T09:59:07.855Z,69.57
2022-09-02T10:01:09.211Z,69.53
2022-09-02T10:03:10.887Z,69.45
2022-09-02T10:05:12.367Z,69.14
2022-09-02T10:07:13.819Z,69.36
2022-09-02T10:09:15.169Z,69.58
2022-09-02T10:11:16.484Z,69.60
2022-09-02T10:15:24.270Z,70.14
2022-09-02T10:17:25.590Z,70.36
2022-09-02T10:19:26.951Z,70.04
2022-09-02T10:21:28.275Z,69.61
2022-09-02T10:23:29.585Z,69.75
2022-09-02T10:25:30.964Z,70.29
2022-09-02T10:27:32.343Z,70.22
2022-09-02T10:29:33.876Z,70.16
2022-09-02T10:31:35.204Z,70.74
2022-09-02T10:33:36.603Z,70.59
2022-09-02T10:35:37.923Z,70.55
2022-09-02T10:37:39.279Z,70.66
2022-09-02T10:39:40.587Z,70.69
2022-09-02T10:43:56.877Z,70.23
2022-09-02T10:45:58.966Z,70.36
2022-09-02T10:48:00.325Z,70.27
2022-09-02T10:50:01.687Z,70.50
2022-09-02T10:52:04.631Z,70.48
2022-09-02T10:54:09.709Z,70.46
2022-09-02T10:56:11.868Z,70.79
2022-09-02T10:58:13.263Z,70.71
2022-09-02T11:00:14.600Z,70.99
2022-09-02T11:02:15.956Z,71.20
2022-09-02T11:04:17.317Z,70.98
2022-09-02T11:06:26.219Z,70.91
2022-09-02T11:08:33.024Z,71.20
2022-09-02T11:10:34.456Z,71.17
2022-09-02T11:12:35.797Z,71.13
2022-09-02T11:14:37.234Z,70.73
2022-09-02T11:16:39.874Z,71.06
2022-09-02T11:18:43.743Z,70.77
2022-09-02T11:20:46.536Z,70.91
2022-09-02T11:22:47.919Z,71.22
2022-09-02T11:24:49.265Z,71.30
2022-09-02T11:26:50.732Z,71.13
2022-09-02T11:28:52.057Z,71.17
2022-09-02T11:30:53.376Z,70.97
2022-09-02T11:32:54.735Z,71.13
2022-09-02T11:34:56.047Z,71.18
2022-09-02T11:36:57.391Z,70.95
2022-09-02T11:38:58.726Z,70.55
2022-09-02T11:43:22.841Z,70.63
2022-09-02T11:45:24.233Z,70.22
2022-09-02T11:47:25.598Z,70.52
2022-09-02T11:49:27.317Z,70.08
2022-09-02T11:51:28.689Z,69.95
2022-09-02T11:53:30.079Z,69.86
2022-09-02T11:55:31.386Z,70.59
2022-09-02T11:57:32.935Z,70.65
2022-09-02T11:59:34.636Z,70.50
2022-09-02T12:01:35.935Z,70.73
2022-09-02T12:04:06.868Z,71.00
2022-09-02T12:06:05.666Z,70.88
2022-09-02T12:08:07.238Z,70.77
2022-09-02T12:10:09.035Z,70.96
2022-09-02T12:12:11.908Z,71.30
2022-09-02T12:14:13.666Z,71.42
2022-09-02T12:16:23.995Z,71.02
2022-09-02T12:18:27.953Z,71.20
2022-09-02T12:20:29.294Z,71.16
2022-09-02T12:22:30.602Z,70.89
2022-09-02T12:24:32.953Z,71.00
2022-09-02T12:26:34.756Z,71.09
2022-09-02T12:28:36.063Z,70.95
2022-09-02T12:30:37.388Z,71.13
2022-09-02T12:32:38.740Z,71.02
2022-09-02T12:34:40.045Z,70.70
2022-09-02T12:36:42.341Z,70.92
2022-09-02T12:38:44.014Z,71.09
2022-09-02T12:40:45.474Z,71.26
2022-09-02T12:42:48.392Z,71.07
2022-09-02T12:44:49.942Z,70.30
2022-09-02T12:46:51.450Z,70.50
2022-09-02T12:48:52.855Z,70.73
2022-09-02T12:50:55.206Z,69.72
2022-09-02T12:52:56.514Z,69.58
2022-09-02T12:54:57.814Z,69.26
2022-09-02T12:56:59.952Z,69.09
2022-09-02T12:59:02.884Z,69.05
2022-09-02T13:01:05.551Z,69.78
2022-09-02T13:03:06.884Z,69.43
2022-09-02T13:05:08.534Z,69.07
2022-09-02T13:07:09.868Z,69.05
2022-09-02T13:09:11.485Z,69.20
2022-09-02T13:11:12.859Z,69.39
2022-09-02T13:13:14.294Z,69.25
2022-09-02T13:15:17.454Z,69.40
2022-09-02T13:17:37.321Z,69.49
2022-09-02T13:19:38.820Z,69.54
2022-09-02T13:21:41.136Z,69.58
2022-09-02T13:23:42.451Z,69.90
2022-09-02T13:25:43.792Z,69.88
2022-09-02T13:27:45.107Z,69.67
2022-09-02T13:29:46.418Z,69.67
2022-09-02T13:31:48.015Z,69.52
2022-09-02T13:33:50.337Z,70.03
2022-09-02T13:35:51.652Z,69.96
2022-09-02T13:37:53.112Z,69.33
2022-09-02T13:39:54.479Z,69.54
2022-09-02T13:41:57.372Z,68.90
2022-09-02T13:43:58.727Z,69.00
2022-09-02T13:46:00.195Z,69.23
2022-09-02T13:48:01.579Z,69.06
2022-09-02T13:50:02.940Z,69.07
2022-09-02T13:52:05.247Z,69.07
2022-09-02T13:54:22.619Z,69.03
2022-09-02T13:56:25.086Z,69.57
2022-09-02T13:58:26.983Z,69.42
2022-09-02T14:00:28.413Z,69.04
2022-09-02T14:02:29.884Z,68.96
2022-09-02T14:04:33.326Z,69.04
2022-09-02T14:06:36.618Z,68.91
2022-09-02T14:08:37.949Z,68.63
2022-09-02T14:10:39.522Z,69.35
2022-09-02T14:12:40.922Z,69.01
2022-09-02T14:14:42.243Z,68.90
2022-09-02T14:16:43.540Z,69.14
2022-09-02T14:18:44.863Z,68.94
2022-09-02T14:20:46.187Z,69.23
2022-09-02T14:22:47.531Z,68.70
2022-09-02T14:24:48.871Z,69.22
2022-09-02T14:26:50.222Z,68.85
2022-09-02T14:28:51.576Z,68.69
2022-09-02T14:30:52.914Z,68.83
2022-09-02T14:32:56.010Z,68.91
2022-09-02T14:34:57.394Z,69.17
2022-09-02T14:36:58.707Z,69.28
2022-09-02T14:39:00.032Z,68.67
2022-09-02T14:41:01.399Z,68.87
2022-09-02T14:43:02.842Z,69.17
2022-09-02T14:45:05.694Z,68.79
2022-09-02T14:47:07.068Z,68.83
2022-09-02T14:49:09.148Z,68.84
2022-09-02T14:51:10.460Z,68.98
2022-09-02T14:53:11.833Z,69.26
2022-09-02T14:55:13.191Z,69.16
2022-09-02T14:57:14.505Z,69.27
2022-09-02T14:59:15.854Z,68.87
2022-09-02T15:01:17.373Z,68.96
2022-09-02T15:03:18.758Z,69.33
2022-09-02T15:05:22.141Z,69.07
2022-09-02T15:07:23.498Z,68.96
2022-09-02T15:09:25.050Z,69.12
2022-09-02T15:11:26.403Z,69.38
2022-09-02T15:13:27.882Z,69.08
2022-09-02T15:15:29.303Z,69.53
2022-09-02T15:17:31.008Z,69.26
2022-09-02T15:19:33.276Z,71.28
2022-09-02T15:21:34.639Z,66.62
2022-09-02T15:23:41.107Z,66.93
2022-09-02T15:25:42.748Z,67.15
2022-09-02T15:27:44.071Z,66.99
2022-09-02T15:29:45.375Z,67.05
2022-09-02T15:31:46.714Z,67.48
2022-09-02T15:33:48.030Z,66.85
2022-09-02T15:35:49.591Z,67.11
2022-09-02T15:37:51.074Z,67.37
2022-09-02T15:39:52.426Z,67.07
2022-09-02T15:41:55.376Z,67.14
2022-09-02T15:43:56.787Z,67.03
2022-09-02T15:45:58.139Z,66.26
2022-09-02T15:47:59.610Z,65.93
2022-09-02T15:50:00.930Z,65.59
2022-09-02T15:52:03.026Z,65.35
2022-09-02T15:54:04.366Z,65.88
2022-09-02T15:56:05.712Z,65.92
2022-09-02T15:58:07.035Z,65.97
2022-09-02T16:00:09.805Z,65.74
2022-09-02T16:02:12.408Z,65.81
2022-09-02T16:04:13.767Z,66.91
2022-09-02T16:06:15.088Z,67.42
2022-09-02T16:08:16.428Z,67.77
2022-09-02T16:10:17.754Z,66.90
2022-09-02T16:12:19.104Z,66.87
2022-09-02T16:14:21.081Z,67.51
2022-09-02T16:16:22.700Z,67.72
2022-09-02T16:18:24.199Z,67.81
2022-09-02T16:20:25.515Z,68.08
2022-09-02T16:22:26.839Z,68.58
2022-09-02T16:24:28.230Z,68.59
2022-09-02T16:26:29.561Z,68.76
2022-09-02T16:28:30.965Z,68.93
2022-09-02T16:30:32.682Z,68.27
2022-09-02T16:32:34.023Z,67.25
2022-09-02T16:34:35.347Z,66.85
2022-09-02T16:36:36.666Z,65.72
2022-09-02T16:38:38.006Z,66.81
2022-09-02T16:40:39.348Z,66.66
2022-09-02T16:42:40.696Z,66.68
2022-09-02T16:44:42.079Z,66.38
2022-09-02T16:46:43.477Z,67.03
2022-09-02T16:48:44.786Z,66.63
2022-09-02T16:50:46.194Z,67.45
2022-09-02T16:52:47.506Z,68.23
2022-09-02T16:54:48.930Z,68.69
2022-09-02T16:56:50.286Z,69.10
2022-09-02T16:58:52.623Z,69.52
2022-09-02T17:00:53.961Z,69.36
2022-09-02T17:02:55.332Z,69.63
2022-09-02T17:04:56.807Z,68.23
2022-09-02T17:06:59.167Z,67.29
2022-09-02T17:09:00.530Z,66.31
2022-09-02T17:11:01.874Z,66.09
2022-09-02T17:13:03.316Z,66.58
2022-09-02T17:15:05.406Z,67.40
2022-09-02T17:17:06.780Z,67.45
2022-09-02T17:19:08.198Z,66.75
2022-09-02T17:21:09.507Z,66.63
2022-09-02T17:23:12.035Z,67.31
2022-09-02T17:25:13.365Z,67.57
2022-09-02T17:27:14.687Z,67.66
2022-09-02T17:29:47.120Z,66.95
2022-09-02T17:31:40.109Z,66.08
2022-09-02T17:33:41.721Z,67.20
2022-09-02T17:35:43.049Z,66.88
2022-09-02T17:37:44.380Z,67.14
2022-09-02T17:39:46.615Z,67.66
2022-09-02T17:41:54.265Z,67.78
2022-09-02T17:43:57.002Z,67.62
2022-09-02T17:45:58.393Z,68.54
2022-09-02T17:48:19.061Z,67.84
2022-09-02T17:50:21.153Z,68.33
2022-09-02T17:52:22.510Z,67.98
2022-09-02T17:54:23.858Z,68.50
2022-09-02T17:56:27.295Z,68.22
2022-09-02T17:58:29.372Z,68.26
2022-09-02T18:00:30.688Z,68.50
2022-09-02T18:02:33.350Z,68.26
2022-09-02T18:04:34.724Z,68.94
2022-09-02T18:06:36.027Z,68.69
2022-09-02T18:08:37.758Z,68.94
2022-09-02T18:10:39.102Z,68.18
2022-09-02T18:12:40.417Z,68.65
2022-09-02T18:14:41.771Z,68.60
2022-09-02T18:16:49.452Z,68.57
2022-09-02T18:18:52.736Z,68.13
2022-09-02T18:20:54.138Z,68.69
2022-09-02T18:22:55.478Z,68.55
2022-09-02T18:24:56.806Z,68.90
2022-09-02T18:26:58.124Z,68.92
2022-09-02T18:28:59.658Z,69.03
2022-09-02T18:31:01.062Z,69.20
2022-09-02T18:33:02.901Z,69.29
2022-09-02T18:35:04.376Z,69.10
2022-09-02T18:37:06.264Z,69.34
2022-09-02T18:39:07.611Z,68.79
2022-09-02T18:41:08.924Z,68.70
2022-09-02T18:43:10.936Z,69.08
2022-09-02T18:45:13.350Z,69.26
2022-09-02T18:47:14.969Z,69.07
2022-09-02T18:49:16.369Z,68.81
2022-09-02T18:51:17.926Z,68.78
2022-09-02T18:53:19.251Z,69.04
2022-09-02T18:55:20.607Z,69.08
2022-09-02T18:57:21.969Z,68.92
2022-09-02T18:59:28.548Z,69.06
2022-09-02T19:01:30.463Z,69.25
2022-09-02T19:03:31.884Z,69.44
2022-09-02T19:05:33.775Z,69.06
2022-09-02T19:07:53.597Z,68.55
2022-09-02T19:09:56.691Z,68.86
2022-09-02T19:12:06.201Z,68.66
2022-09-02T19:14:13.447Z,68.78
2022-09-02T19:16:15.275Z,68.64
2022-09-02T19:18:16.636Z,69.08
2022-09-02T19:20:18.781Z,68.91
2022-09-02T19:22:20.205Z,68.99
2022-09-02T19:24:24.212Z,68.80
2022-09-02T19:26:25.526Z,68.90
2022-09-02T19:28:29.158Z,69.27
2022-09-02T19:30:36.084Z,68.77
2022-09-02T19:32:40.064Z,68.82
2022-09-02T19:34:42.025Z,68.83
2022-09-02T19:36:43.386Z,68.94
2022-09-02T19:38:44.678Z,69.11
2022-09-02T19:40:49.532Z,68.99
2022-09-02T19:42:54.289Z,69.37
2022-09-02T19:44:56.070Z,69.04
2022-09-02T19:47:49.704Z,69.08
2022-09-02T19:49:18.684Z,69.36
2022-09-02T19:51:22.126Z,69.29
2022-09-02T19:53:30.141Z,69.66
2022-09-02T19:55:33.818Z,70.03
2022-09-02T19:57:35.253Z,70.33
2022-09-02T19:59:36.569Z,70.22
2022-09-02T20:01:37.972Z,70.68
2022-09-02T20:03:39.646Z,70.79
2022-09-02T20:05:40.970Z,69.06
2022-09-02T20:07:42.412Z,69.81
2022-09-02T20:09:44.023Z,69.49
2022-09-02T20:11:48.250Z,69.20
2022-09-02T20:13:52.777Z,69.68
2022-09-02T20:15:54.163Z,68.92
2022-09-02T20:17:55.567Z,69.03
2022-09-02T20:20:00.191Z,69.01
2022-09-02T20:22:01.791Z,68.13
2022-09-02T20:24:03.100Z,67.65
2022-09-02T20:26:04.435Z,67.61
2022-09-02T20:28:06.072Z,67.48
2022-09-02T20:30:08.526Z,68.72
2022-09-02T20:32:09.980Z,68.66
2022-09-02T20:34:11.816Z,69.23
2022-09-02T20:36:14.068Z,68.70
2022-09-02T20:38:15.420Z,68.75
2022-09-02T20:40:16.819Z,68.55
2022-09-02T20:42:18.133Z,69.02
2022-09-02T20:44:20.527Z,68.78
2022-09-02T20:46:25.019Z,69.18
2022-09-02T20:48:28.025Z,69.18
2022-09-02T20:50:29.337Z,68.69
2022-09-02T20:52:31.326Z,69.76
2022-09-02T20:54:32.718Z,69.90
2022-09-02T20:56:34.040Z,70.33
2022-09-02T20:58:36.567Z,69.30
2022-09-02T21:00:37.965Z,69.25
2022-09-02T21:02:41.361Z,69.05
2022-09-02T21:04:42.769Z,68.99
2022-09-02T21:06:44.255Z,68.90
2022-09-02T21:08:47.086Z,68.95
2022-09-02T21:10:48.985Z,69.33
2022-09-02T21:12:50.319Z,69.67
2022-09-02T21:14:51.661Z,69.06
2022-09-02T21:16:52.962Z,69.35
2022-09-02T21:18:54.262Z,69.05
2022-09-02T21:20:55.568Z,69.18
2022-09-02T21:22:56.983Z,68.89
2022-09-02T21:24:58.302Z,69.02
2022-09-02T21:26:59.643Z,68.87
2022-09-02T21:29:00.981Z,68.83
2022-09-02T21:31:02.350Z,69.29
2022-09-02T21:33:04.914Z,69.06
2022-09-02T21:35:06.223Z,69.34
2022-09-02T21:37:07.539Z,69.02
2022-09-02T21:39:08.851Z,70.37
2022-09-02T21:41:10.152Z,70.02
2022-09-02T21:43:11.446Z,70.67
2022-09-02T21:45:12.755Z,70.56
2022-09-02T21:47:15.362Z,70.43
2022-09-02T21:49:16.662Z,70.56
2022-09-02T21:51:17.988Z,70.89
2022-09-02T21:53:19.423Z,70.79
2022-09-02T21:55:20.727Z,71.12
2022-09-02T21:57:22.156Z,71.54
2022-09-02T21:59:23.492Z,71.50
2022-09-02T22:01:24.878Z,71.32
2022-09-02T22:03:29.387Z,71.72
2022-09-02T22:05:30.724Z,71.25
2022-09-02T22:07:32.019Z,72.01
2022-09-02T22:09:33.369Z,71.86
2022-09-02T22:11:37.227Z,71.92
2022-09-02T22:13:40.769Z,72.14
2022-09-02T22:15:42.626Z,72.30
2022-09-02T22:17:45.869Z,72.35
2022-09-02T22:19:54.034Z,72.05
2022-09-02T22:21:55.334Z,72.43
2022-09-02T22:23:56.927Z,72.45
2022-09-02T22:25:58.543Z,72.45
2022-09-02T22:27:59.846Z,72.58
2022-09-02T22:30:01.179Z,72.30
2022-09-02T22:32:02.499Z,72.82
2022-09-02T22:34:03.810Z,72.63
2022-09-02T22:36:05.150Z,72.54
2022-09-02T22:38:09.613Z,72.66
2022-09-02T22:40:10.967Z,72.30
2022-09-02T22:42:12.275Z,72.92
2022-09-02T22:44:13.619Z,72.48
2022-09-02T22:46:33.760Z,72.72
2022-09-02T22:48:53.863Z,72.81
2022-09-02T22:51:18.460Z,72.64
2022-09-02T22:53:20.390Z,73.37
2022-09-02T22:55:21.755Z,72.98
2022-09-02T22:57:23.075Z,73.37
2022-09-02T22:59:24.491Z,73.14
2022-09-02T23:01:25.935Z,73.34
2022-09-02T23:03:27.314Z,73.34
2022-09-02T23:05:49.344Z,73.51
2022-09-02T23:07:50.654Z,73.50
2022-09-02T23:09:54.849Z,73.57
2022-09-02T23:12:02.223Z,74.19
2022-09-02T23:14:09.159Z,73.91
2022-09-02T23:16:11.855Z,74.50
2022-09-02T23:18:13.282Z,73.98
2022-09-02T23:20:14.787Z,73.40
2022-09-02T23:22:17.502Z,73.96
2022-09-02T23:24:19.814Z,73.76
2022-09-02T23:26:21.114Z,73.60
2022-09-02T23:28:28.182Z,74.13
2022-09-02T23:30:29.482Z,74.48
2022-09-02T23:32:31.977Z,74.13
2022-09-02T23:34:33.318Z,74.09
2022-09-02T23:36:35.181Z,74.17
2022-09-02T23:38:41.491Z,74.27
2022-09-02T23:40:43.019Z,74.48
2022-09-02T23:42:44.345Z,74.03
2022-09-02T23:44:46.141Z,74.40
2022-09-02T23:46:47.558Z,74.58
2022-09-02T23:48:48.943Z,74.33
2022-09-02T23:50:50.251Z,74.28
2022-09-02T23:52:56.488Z,74.06
2022-09-02T23:54:57.898Z,74.55
2022-09-02T23:56:59.198Z,74.46
2022-09-02T23:59:00.510Z,74.55
